Time;durP1;ratioP1;P1;durP2;ratioP2;P2;SDS_P1;SDS_P2;PMS_P1;PMS_P2;Temp;Humidity;BMP_temperature;BMP_pressure;BME280_temperature;BME280_humidity;BME280_pressure;Samples;Min_cycle;Max_cycle;Signal;HPM_P1;HPM_P2
2022/05/03 00:02:25;;;;;;;8.95;6.40;;;12.40;99.90;;;;;;5107223;27;20070;-65
2022/05/03 00:05:07;;;;;;;10.00;7.03;;;12.40;99.90;;;;;;5091533;28;20066;-64
2022/05/03 00:07:38;;;;;;;7.97;6.45;;;12.30;99.90;;;;;;5100849;28;20035;-66
2022/05/03 00:10:09;;;;;;;9.68;6.43;;;12.30;99.90;;;;;;5105256;28;20124;-66
2022/05/03 00:12:57;;;;;;;10.45;6.20;;;12.30;99.90;;;;;;5091661;28;20116;-66
2022/05/03 00:15:25;;;;;;;11.40;7.30;;;12.30;99.90;;;;;;5104462;28;20087;-66
2022/05/03 00:17:53;;;;;;;8.45;6.00;;;12.20;99.90;;;;;;5101563;28;20044;-66
2022/05/03 00:20:22;;;;;;;8.90;6.57;;;12.20;99.90;;;;;;5092109;28;20475;-66
2022/05/03 00:22:49;;;;;;;9.50;6.82;;;12.20;99.90;;;;;;5103394;28;20140;-66
2022/05/03 00:25:17;;;;;;;9.07;6.38;;;12.20;99.90;;;;;;5100101;28;20078;-66
2022/05/03 00:27:44;;;;;;;13.57;7.60;;;12.20;99.90;;;;;;5106206;28;20054;-66
2022/05/03 00:30:12;;;;;;;11.20;6.90;;;12.10;99.90;;;;;;5101000;28;20127;-66
2022/05/03 00:32:40;;;;;;;8.00;6.22;;;12.10;99.90;;;;;;5110346;28;20047;-66
2022/05/03 00:35:11;;;;;;;10.73;7.18;;;12.10;99.90;;;;;;5097888;27;20150;-65
2022/05/03 00:37:39;;;;;;;10.43;6.80;;;12.00;99.90;;;;;;5101947;28;20039;-65
2022/05/03 00:40:17;;;;;;;9.02;6.55;;;12.00;99.90;;;;;;5106686;27;20036;-66
2022/05/03 00:42:47;;;;;;;9.05;6.80;;;12.00;99.90;;;;;;5101518;28;20088;-66
2022/05/03 00:45:24;;;;;;;9.70;6.47;;;11.90;99.90;;;;;;5098005;28;20044;-65
2022/05/03 00:47:57;;;;;;;9.80;7.22;;;11.90;99.90;;;;;;5106100;28;20050;-66
2022/05/03 00:50:43;;;;;;;10.15;6.90;;;11.80;99.90;;;;;;5098301;28;20580;-66
2022/05/03 00:53:17;;;;;;;9.50;7.18;;;11.80;99.90;;;;;;5103247;28;20384;-66
2022/05/03 00:56:05;;;;;;;13.75;6.90;;;11.70;99.90;;;;;;5096145;28;20036;-66
2022/05/03 00:58:56;;;;;;;13.32;6.65;;;11.70;99.90;;;;;;5098816;27;20495;-67
2022/05/03 01:01:32;;;;;;;11.68;7.78;;;11.60;99.90;;;;;;5103725;28;20058;-66
2022/05/03 01:04:12;;;;;;;10.43;6.95;;;11.60;99.90;;;;;;5104388;28;20044;-66
2022/05/03 01:06:53;;;;;;;11.63;7.93;;;11.50;99.90;;;;;;5101710;28;20051;-65
2022/05/03 01:10:05;;;;;;;15.25;8.07;;;11.50;99.90;;;;;;5098749;28;20040;-66
2022/05/03 01:12:55;;;;;;;14.05;8.48;;;11.40;99.90;;;;;;5092213;28;20043;-66
2022/05/03 01:15:26;;;;;;;14.18;7.70;;;11.30;99.90;;;;;;5088343;28;20494;-65
2022/05/03 01:18:14;;;;;;;10.70;7.65;;;11.30;99.90;;;;;;5111333;28;20070;-65
2022/05/03 01:20:57;;;;;;;10.43;7.47;;;11.20;99.90;;;;;;5110981;28;20466;-66
2022/05/03 01:24:01;;;;;;;14.60;7.90;;;11.20;99.90;;;;;;5110801;28;20471;-65
2022/05/03 01:27:04;;;;;;;12.10;7.85;;;11.20;99.90;;;;;;5100810;28;20567;-66
2022/05/03 01:29:34;;;;;;;19.08;12.10;;;11.10;99.90;;;;;;5053976;28;20139;-66
2022/05/03 01:32:07;;;;;;;18.00;11.05;;;11.10;99.90;;;;;;5067239;28;20063;-65
2022/05/03 01:34:36;;;;;;;13.77;8.13;;;11.10;99.90;;;;;;5067146;28;20049;-66
2022/05/03 01:37:30;;;;;;;13.70;8.13;;;11.00;99.90;;;;;;5066968;28;20044;-66
2022/05/03 01:40:07;;;;;;;9.35;7.18;;;11.00;99.90;;;;;;5062980;28;20052;-66
2022/05/03 01:42:50;;;;;;;11.27;8.73;;;10.90;99.90;;;;;;5064959;28;20044;-65
2022/05/03 01:45:36;;;;;;;11.32;8.25;;;10.90;99.90;;;;;;5066103;28;20142;-66
2022/05/03 01:48:05;;;;;;;15.75;8.60;;;10.80;99.90;;;;;;5066172;28;20047;-66
2022/05/03 01:50:33;;;;;;;12.20;8.32;;;10.80;99.90;;;;;;5065519;28;20052;-66
2022/05/03 01:53:26;;;;;;;11.65;8.15;;;10.80;99.90;;;;;;5066712;28;20036;-66
2022/05/03 01:55:59;;;;;;;10.52;7.60;;;10.80;99.90;;;;;;5059287;28;20163;-65
2022/05/03 01:58:45;;;;;;;15.13;8.40;;;10.70;99.90;;;;;;5046929;28;20127;-66
2022/05/03 02:01:36;;;;;;;12.00;9.30;;;10.70;99.90;;;;;;5049038;28;20444;-64
2022/05/03 02:04:27;;;;;;;9.77;7.87;;;10.70;99.90;;;;;;5054609;28;20055;-65
2022/05/03 02:07:00;;;;;;;13.85;9.05;;;10.70;99.90;;;;;;5082615;28;20333;-66
2022/05/03 02:09:51;;;;;;;15.50;8.57;;;10.60;99.90;;;;;;5099210;28;20047;-65
2022/05/03 02:12:20;;;;;;;12.93;8.50;;;10.60;99.90;;;;;;5088515;28;20040;-66
2022/05/03 02:14:54;;;;;;;14.73;9.38;;;10.60;99.90;;;;;;5107334;28;20374;-66
2022/05/03 02:17:53;;;;;;;17.65;10.75;;;10.60;99.90;;;;;;5109413;28;20035;-65
2022/05/03 02:20:35;;;;;;;17.23;8.23;;;10.60;99.90;;;;;;5105425;28;20036;-65
2022/05/03 02:23:33;;;;;;;14.45;9.15;;;10.60;99.90;;;;;;5109438;28;20498;-65
2022/05/03 02:26:37;;;;;;;15.32;8.93;;;10.60;99.90;;;;;;5102946;28;20545;-65
2022/05/03 02:29:10;;;;;;;17.60;9.07;;;10.70;99.90;;;;;;5104725;28;20487;-65
2022/05/03 02:31:37;;;;;;;14.77;8.57;;;10.70;99.90;;;;;;5098817;28;20044;-65
2022/05/03 02:34:37;;;;;;;20.30;10.63;;;10.70;99.90;;;;;;5106193;27;20034;-65
2022/05/03 02:37:18;;;;;;;21.45;12.32;;;10.70;99.90;;;;;;5086036;27;20471;-65
2022/05/03 02:39:52;;;;;;;15.23;9.95;;;10.80;99.90;;;;;;5094543;28;20040;-65
2022/05/03 02:42:21;;;;;;;12.82;9.15;;;10.90;99.90;;;;;;5103609;28;20047;-65
2022/05/03 02:44:49;;;;;;;11.48;8.40;;;10.90;99.90;;;;;;5107879;28;20463;-65
2022/05/03 02:47:42;;;;;;;14.05;9.10;;;10.90;99.90;;;;;;5105838;28;20124;-66
2022/05/03 02:50:16;;;;;;;13.27;8.27;;;11.00;99.90;;;;;;5101945;28;20573;-66
2022/05/03 02:52:57;;;;;;;16.15;8.88;;;11.10;99.90;;;;;;5108202;28;20530;-65
2022/05/03 02:55:59;;;;;;;13.07;8.68;;;11.10;99.90;;;;;;5108431;28;20066;-65
2022/05/03 02:58:47;;;;;;;14.85;9.73;;;11.10;99.90;;;;;;5098190;27;20570;-65
2022/05/03 03:01:51;;;;;;;17.10;10.25;;;11.20;99.90;;;;;;5093598;28;20048;-64
2022/05/03 03:04:27;;;;;;;16.77;10.30;;;11.20;99.90;;;;;;5088817;28;20036;-65
2022/05/03 03:06:55;;;;;;;16.65;9.50;;;11.30;99.90;;;;;;5094466;28;20050;-65
2022/05/03 03:09:46;;;;;;;18.95;12.10;;;11.30;99.90;;;;;;5097077;28;20136;-65
2022/05/03 03:12:26;;;;;;;19.33;13.68;;;11.30;99.90;;;;;;5079149;28;20047;-66
2022/05/03 03:15:07;;;;;;;17.52;12.65;;;11.30;99.90;;;;;;5087683;28;20222;-65
2022/05/03 03:17:50;;;;;;;20.23;11.52;;;11.30;99.90;;;;;;5103363;28;20066;-66
2022/05/03 03:20:22;;;;;;;12.10;8.77;;;11.40;99.90;;;;;;5103399;28;20799;-65
2022/05/03 03:22:50;;;;;;;;;;;11.40;99.90;;;;;;5109369;28;20561;-66
2022/05/03 03:25:19;;;;;;;16.88;10.18;;;11.40;99.90;;;;;;5102989;28;19924;-65
2022/05/03 03:27:51;;;;;;;13.95;9.75;;;11.30;99.90;;;;;;5108253;28;20035;-64
2022/05/03 03:30:21;;;;;;;13.98;9.63;;;11.30;99.90;;;;;;5108070;28;20512;-65
2022/05/03 03:32:56;;;;;;;14.90;9.10;;;11.20;99.90;;;;;;5108724;28;20036;-65
2022/05/03 03:35:24;;;;;;;14.13;8.20;;;11.20;99.90;;;;;;5108584;28;20043;-66
2022/05/03 03:37:52;;;;;;;10.68;8.60;;;11.10;99.90;;;;;;5102738;28;20040;-65
2022/05/03 03:40:20;;;;;;;13.38;8.95;;;11.10;99.90;;;;;;5100336;28;20051;-64
2022/05/03 03:42:49;;;;;;;9.95;7.78;;;11.00;99.90;;;;;;5107379;28;20180;-65
2022/05/03 03:45:17;;;;;;;11.63;7.50;;;10.90;99.90;;;;;;5088298;28;20042;-65
2022/05/03 03:47:46;;;;;;;11.13;8.23;;;10.90;99.90;;;;;;5104103;28;20035;-65
2022/05/03 03:50:14;;;;;;;11.05;7.75;;;10.90;99.90;;;;;;5106612;28;20043;-65
2022/05/03 03:52:44;;;;;;;12.00;8.30;;;10.90;99.90;;;;;;5108537;28;20496;-65
2022/05/03 03:55:13;;;;;;;10.05;7.95;;;10.90;99.90;;;;;;5108224;28;20043;-65
2022/05/03 03:57:41;;;;;;;11.23;8.35;;;11.00;99.90;;;;;;5106430;28;20046;-65
2022/05/03 04:00:11;;;;;;;9.65;7.53;;;11.00;99.90;;;;;;5103481;28;20048;-66
2022/05/03 04:02:46;;;;;;;10.50;7.53;;;11.00;99.90;;;;;;5084747;28;20056;-64
2022/05/03 04:05:22;;;;;;;13.07;8.30;;;11.00;99.90;;;;;;5090872;28;20040;-66
2022/05/03 04:07:50;;;;;;;11.45;9.15;;;10.90;99.90;;;;;;5086338;28;20059;-65
2022/05/03 04:10:19;;;;;;;11.27;8.38;;;11.00;99.90;;;;;;5105830;28;20619;-66
2022/05/03 04:12:47;;;;;;;11.05;7.57;;;11.00;99.90;;;;;;5100779;28;20119;-66
2022/05/03 04:15:15;;;;;;;13.90;10.02;;;11.00;99.90;;;;;;5096879;28;20511;-66
2022/05/03 04:17:43;;;;;;;11.43;8.35;;;11.00;99.90;;;;;;5104561;28;20044;-66
2022/05/03 04:20:12;;;;;;;14.00;9.00;;;11.00;99.90;;;;;;5094450;28;20056;-64
2022/05/03 04:22:39;;;;;;;12.18;8.75;;;11.10;99.90;;;;;;5106557;28;20044;-65
2022/05/03 04:25:07;;;;;;;11.88;8.93;;;11.10;99.90;;;;;;5101881;28;20150;-65
2022/05/03 04:27:34;;;;;;;11.20;8.05;;;11.20;99.90;;;;;;5100561;28;20532;-65
2022/05/03 04:30:03;;;;;;;12.82;9.68;;;11.20;99.90;;;;;;5099566;28;20482;-65
2022/05/03 04:32:32;;;;;;;10.25;8.15;;;11.20;99.90;;;;;;5099301;28;20048;-65
2022/05/03 04:35:00;;;;;;;13.50;9.38;;;11.30;99.90;;;;;;5107898;28;20557;-65
2022/05/03 04:37:27;;;;;;;10.85;8.20;;;11.30;99.90;;;;;;5098494;28;20434;-65
2022/05/03 04:39:55;;;;;;;11.88;9.40;;;11.30;99.90;;;;;;5106485;28;20120;-67
2022/05/03 04:42:22;;;;;;;11.48;8.82;;;11.30;99.90;;;;;;5104895;28;20141;-66
2022/05/03 04:44:50;;;;;;;13.57;9.45;;;11.40;99.90;;;;;;5108474;28;20050;-66
2022/05/03 04:47:18;;;;;;;13.30;9.65;;;11.50;99.90;;;;;;5108105;28;20054;-67
2022/05/03 04:49:47;;;;;;;10.52;8.43;;;11.50;99.90;;;;;;5095075;28;20414;-66
2022/05/03 04:52:15;;;;;;;10.70;7.85;;;11.60;99.90;;;;;;5103410;28;20506;-66
2022/05/03 04:54:43;;;;;;;12.13;9.15;;;11.60;99.90;;;;;;5099923;28;20043;-66
2022/05/03 04:57:10;;;;;;;14.88;9.20;;;11.60;99.90;;;;;;5109570;28;20562;-65
2022/05/03 04:59:38;;;;;;;13.57;8.50;;;11.70;99.90;;;;;;5104940;27;20042;-66
2022/05/03 05:02:05;;;;;;;13.20;9.02;;;11.60;99.90;;;;;;5097201;28;20126;-65
2022/05/03 05:04:33;;;;;;;15.95;9.10;;;11.60;99.90;;;;;;5096715;28;20442;-65
2022/05/03 05:07:00;;;;;;;17.17;10.60;;;11.70;99.90;;;;;;5101147;28;20044;-65
2022/05/03 05:09:28;;;;;;;19.50;10.52;;;11.70;99.90;;;;;;5095706;28;20043;-66
2022/05/03 05:11:55;;;;;;;14.18;10.07;;;11.70;99.90;;;;;;5100525;28;20610;-65
2022/05/03 05:14:23;;;;;;;14.15;10.55;;;11.80;99.90;;;;;;5094351;28;20533;-66
2022/05/03 05:16:51;;;;;;;17.25;11.82;;;11.80;99.90;;;;;;5092738;28;20040;-66
2022/05/03 05:19:19;;;;;;;24.92;13.90;;;11.90;99.90;;;;;;5091729;28;20412;-66
2022/05/03 05:21:46;;;;;;;18.25;12.40;;;11.90;99.90;;;;;;5093235;28;20093;-65
2022/05/03 05:24:13;;;;;;;20.63;12.40;;;12.00;99.90;;;;;;5107166;28;20491;-65
2022/05/03 05:26:41;;;;;;;14.57;10.10;;;12.10;99.90;;;;;;5102368;28;20044;-65
2022/05/03 05:29:09;;;;;;;19.27;11.85;;;12.20;99.90;;;;;;5088153;28;20059;-65
2022/05/03 05:31:37;;;;;;;15.73;10.65;;;12.30;99.90;;;;;;5093692;28;20044;-66
2022/05/03 05:34:04;;;;;;;15.38;11.30;;;12.40;99.90;;;;;;5093077;28;20570;-66
2022/05/03 05:36:32;;;;;;;13.55;9.50;;;12.50;99.90;;;;;;5091843;28;20439;-66
2022/05/03 05:38:59;;;;;;;11.85;8.93;;;12.60;99.90;;;;;;5091653;28;20133;-64
2022/05/03 05:41:26;;;;;;;15.13;9.93;;;12.70;99.90;;;;;;5095046;28;20042;-65
2022/05/03 05:43:54;;;;;;;13.48;9.65;;;12.80;99.90;;;;;;5090034;28;20044;-66
2022/05/03 05:46:21;;;;;;;17.15;10.30;;;13.00;99.90;;;;;;5098305;27;20107;-65
2022/05/03 05:48:48;;;;;;;11.98;9.90;;;13.00;99.90;;;;;;5094861;27;20048;-66
2022/05/03 05:51:15;;;;;;;15.55;10.10;;;13.00;99.90;;;;;;5095470;27;20047;-66
2022/05/03 05:53:43;;;;;;;11.13;9.05;;;13.10;99.90;;;;;;5104501;28;20150;-65
2022/05/03 05:56:11;;;;;;;14.40;9.52;;;13.20;99.90;;;;;;5113281;27;20047;-65
2022/05/03 05:58:45;;;;;;;13.95;8.90;;;13.40;99.90;;;;;;5093560;27;20104;-65
2022/05/03 06:01:13;;;;;;;14.05;9.68;;;13.50;99.90;;;;;;5099615;28;20066;-65
2022/05/03 06:03:42;;;;;;;12.50;8.90;;;13.60;99.90;;;;;;5111070;27;20550;-65
2022/05/03 06:06:10;;;;;;;12.10;8.52;;;13.70;99.90;;;;;;5094102;28;20044;-65
2022/05/03 06:08:37;;;;;;;14.77;9.43;;;13.80;99.90;;;;;;5093872;28;20048;-65
2022/05/03 06:11:05;;;;;;;13.02;9.00;;;14.00;99.90;;;;;;5098256;28;20040;-65
2022/05/03 06:13:32;;;;;;;17.52;8.27;;;13.90;99.90;;;;;;5104476;28;20043;-67
2022/05/03 06:16:08;;;;;;;10.80;7.90;;;14.00;99.90;;;;;;5106685;28;20530;-66
2022/05/03 06:18:36;;;;;;;11.35;8.38;;;14.20;99.90;;;;;;5099565;27;20052;-66
2022/05/03 06:21:07;;;;;;;13.48;7.53;;;14.20;99.90;;;;;;5103896;27;20499;-65
2022/05/03 06:23:36;;;;;;;12.13;8.38;;;14.20;99.90;;;;;;5089761;28;20052;-64
2022/05/03 06:26:05;;;;;;;17.25;9.00;;;14.40;99.90;;;;;;5092386;28;20040;-65
2022/05/03 06:28:41;;;;;;;10.70;8.40;;;14.50;99.90;;;;;;5089709;28;20159;-65
2022/05/03 06:31:09;;;;;;;13.25;8.43;;;14.50;99.90;;;;;;5090036;28;20046;-65
2022/05/03 06:33:36;;;;;;;8.88;7.70;;;14.70;99.90;;;;;;5090464;28;20483;-65
2022/05/03 06:36:10;;;;;;;14.40;8.43;;;14.90;99.90;;;;;;5090856;28;20068;-65
2022/05/03 06:38:37;;;;;;;10.13;7.13;;;15.00;99.90;;;;;;5091232;28;20048;-65
2022/05/03 06:41:05;;;;;;;12.02;7.70;;;15.00;99.90;;;;;;5097464;28;20736;-65
2022/05/03 06:43:33;;;;;;;12.93;7.95;;;15.20;99.90;;;;;;5095351;28;20575;-66
2022/05/03 06:46:00;;;;;;;11.10;7.78;;;15.20;99.90;;;;;;5097079;28;20066;-66
2022/05/03 06:48:27;;;;;;;11.95;7.90;;;15.20;99.90;;;;;;5105279;28;20498;-65
2022/05/03 06:50:55;;;;;;;9.75;7.30;;;15.30;99.90;;;;;;5094252;28;20040;-65
2022/05/03 06:53:22;;;;;;;12.25;7.53;;;15.40;99.90;;;;;;5089163;28;20039;-65
2022/05/03 06:55:49;;;;;;;9.98;7.57;;;15.50;99.90;;;;;;5099779;27;20044;-65
2022/05/03 06:58:17;;;;;;;15.32;8.10;;;15.70;99.90;;;;;;5104330;27;20042;-65
2022/05/03 07:00:44;;;;;;;12.90;8.73;;;15.70;99.90;;;;;;5101940;28;20044;-65
2022/05/03 07:03:12;;;;;;;13.75;8.45;;;15.80;99.90;;;;;;5096227;28;20047;-66
2022/05/03 07:05:40;;;;;;;15.63;8.82;;;15.70;99.90;;;;;;5093186;28;20048;-66
2022/05/03 07:08:09;;;;;;;11.13;8.15;;;15.80;99.90;;;;;;5091200;28;20108;-65
2022/05/03 07:10:39;;;;;;;12.70;8.30;;;15.80;99.90;;;;;;5094522;28;20043;-65
2022/05/03 07:13:13;;;;;;;11.32;8.07;;;15.90;99.90;;;;;;5090387;28;20142;-65
2022/05/03 07:15:42;;;;;;;11.68;8.15;;;16.00;99.90;;;;;;5093278;28;20036;-65
2022/05/03 07:23:42;;;;;;;11.30;7.75;;;16.10;99.90;;;;;;5104676;28;20441;-65
2022/05/03 07:26:09;;;;;;;8.90;6.78;;;16.20;99.90;;;;;;5109962;28;20398;-65
2022/05/03 07:28:38;;;;;;;8.55;6.93;;;16.20;99.90;;;;;;5109098;28;20071;-66
2022/05/03 07:31:05;;;;;;;10.45;7.50;;;16.30;99.90;;;;;;5104610;28;20343;-65
2022/05/03 07:33:34;;;;;;;11.68;6.97;;;16.30;99.90;;;;;;5091339;28;20048;-66
2022/05/03 07:36:05;;;;;;;8.77;6.63;;;16.50;99.90;;;;;;5105218;28;20242;-64
2022/05/03 07:38:33;;;;;;;8.57;6.22;;;16.50;99.90;;;;;;5096738;28;20130;-66
2022/05/03 07:41:00;;;;;;;10.32;6.88;;;16.80;99.90;;;;;;5094650;28;20046;-66
2022/05/03 07:43:32;;;;;;;8.63;6.15;;;16.80;99.90;;;;;;5089733;28;20040;-65
2022/05/03 07:46:00;;;;;;;10.20;7.05;;;16.80;99.90;;;;;;5106019;28;20118;-64
2022/05/03 07:48:27;;;;;;;9.57;6.85;;;16.80;99.90;;;;;;5091418;28;20044;-64
2022/05/03 07:50:55;;;;;;;8.25;5.82;;;16.70;99.90;;;;;;5095625;28;20482;-66
2022/05/03 07:53:22;;;;;;;10.23;6.65;;;16.80;99.90;;;;;;5095340;28;21585;-64
2022/05/03 07:55:50;;;;;;;10.38;5.80;;;17.00;99.90;;;;;;5104251;28;20050;-65
2022/05/03 07:58:19;;;;;;;7.55;5.20;;;17.10;99.90;;;;;;5100970;28;20065;-65
2022/05/03 08:00:48;;;;;;;6.80;5.13;;;17.20;99.90;;;;;;5103624;28;20135;-65
2022/05/03 08:03:16;;;;;;;8.98;6.05;;;17.50;99.90;;;;;;5091720;28;20048;-65
2022/05/03 08:05:44;;;;;;;7.80;5.22;;;17.50;99.90;;;;;;5089980;28;20058;-65
2022/05/03 08:08:11;;;;;;;9.65;5.82;;;17.50;99.90;;;;;;5088253;28;20119;-65
2022/05/03 08:10:38;;;;;;;7.63;4.95;;;17.70;99.90;;;;;;5103503;28;20058;-65
2022/05/03 08:13:06;;;;;;;6.97;4.60;;;17.70;99.90;;;;;;5106646;28;20130;-66
2022/05/03 08:15:33;;;;;;;7.43;5.07;;;17.90;99.90;;;;;;5104910;28;20118;-65
2022/05/03 08:18:00;;;;;;;9.15;5.15;;;17.90;99.90;;;;;;5107766;28;20054;-65
2022/05/03 08:20:28;;;;;;;6.97;5.13;;;18.10;99.90;;;;;;5110768;28;20067;-65
2022/05/03 08:22:59;;;;;;;6.82;4.95;;;18.20;99.90;;;;;;5108347;28;20046;-66
2022/05/03 08:25:28;;;;;;;8.50;4.80;;;18.10;99.90;;;;;;5101319;28;20118;-65
2022/05/03 08:27:55;;;;;;;6.70;5.05;;;18.20;99.90;;;;;;5105101;28;20032;-65
2022/05/03 08:30:23;;;;;;;12.10;5.55;;;18.30;99.90;;;;;;5103366;28;20083;-66
2022/05/03 08:32:50;;;;;;;9.40;4.97;;;18.50;99.90;;;;;;5096876;28;20075;-66
2022/05/03 08:35:21;;;;;;;11.68;5.47;;;18.60;99.90;;;;;;5108748;28;20564;-65
2022/05/03 08:43:21;;;;;;;7.22;4.90;;;19.20;99.90;;;;;;5112158;28;20116;-65
2022/05/03 08:45:50;;;;;;;7.18;5.10;;;19.30;99.90;;;;;;5107683;28;20039;-65
2022/05/03 08:48:20;;;;;;;8.73;5.63;;;19.20;99.90;;;;;;5110770;28;20053;-65
2022/05/03 08:50:47;;;;;;;8.30;5.97;;;19.50;99.90;;;;;;5111350;28;20516;-66
2022/05/03 08:53:18;;;;;;;5.93;4.70;;;19.70;99.90;;;;;;5108308;28;20059;-64
2022/05/03 08:55:47;;;;;;;7.95;4.78;;;19.60;99.90;;;;;;5106190;28;20071;-65
2022/05/03 08:58:17;;;;;;;8.23;4.88;;;19.90;99.90;;;;;;5111995;27;20513;-66
2022/05/03 09:00:45;;;;;;;5.47;4.15;;;20.00;99.90;;;;;;5106063;27;20039;-65
2022/05/03 09:03:12;;;;;;;7.85;5.20;;;20.30;99.90;;;;;;5097680;28;20398;-64
2022/05/03 09:05:46;;;;;;;8.45;5.60;;;20.50;99.90;;;;;;5097958;28;20035;-65
2022/05/03 09:08:23;;;;;;;6.05;4.53;;;20.60;99.90;;;;;;5111244;28;20127;-64
2022/05/03 09:10:51;;;;;;;8.40;5.32;;;20.10;99.90;;;;;;5110294;28;20582;-65
2022/05/03 09:13:39;;;;;;;7.10;5.57;;;20.20;99.90;;;;;;5102097;28;20032;-65
2022/05/03 09:16:10;;;;;;;9.88;5.97;;;20.50;99.90;;;;;;5110669;28;20131;-65
2022/05/03 09:18:39;;;;;;;10.82;6.32;;;20.80;99.90;;;;;;5102752;28;20050;-65
2022/05/03 09:24:24;;;;;;;7.25;5.00;;;21.00;99.90;;;;;;5068005;28;20052;-65
2022/05/03 09:26:51;;;;;;;7.72;5.10;;;21.40;99.90;;;;;;5066655;28;20430;-65
2022/05/03 09:29:18;;;;;;;7.75;5.47;;;21.50;99.90;;;;;;5067063;28;20041;-65
2022/05/03 09:31:48;;;;;;;5.70;4.43;;;21.50;99.90;;;;;;5062600;28;20052;-65
2022/05/03 09:34:27;;;;;;;8.10;4.80;;;21.90;99.90;;;;;;5046411;28;20057;-65
2022/05/03 09:37:09;;;;;;;10.73;5.50;;;22.30;99.90;;;;;;5058169;28;20056;-65
2022/05/03 09:39:42;;;;;;;7.72;5.45;;;22.30;99.90;;;;;;5064217;28;20048;-65
2022/05/03 09:42:10;;;;;;;7.97;5.32;;;21.70;99.90;;;;;;5065656;28;20094;-65
2022/05/03 09:44:50;;;;;;;6.85;5.50;;;21.80;99.90;;;;;;5066871;28;20131;-64
2022/05/03 09:47:19;;;;;;;7.20;5.38;;;22.10;99.90;;;;;;5067387;28;20059;-65
2022/05/03 09:49:46;;;;;;;8.77;5.30;;;22.20;99.90;;;;;;5064587;28;20482;-65
2022/05/03 09:52:31;;;;;;;5.70;4.63;;;21.90;99.90;;;;;;5067559;28;20514;-65
2022/05/03 09:55:06;;;;;;;6.43;5.25;;;22.00;99.90;;;;;;5055190;28;20155;-65
2022/05/03 09:57:36;;;;;;;9.60;5.38;;;22.10;99.90;;;;;;5067918;28;20392;-65
2022/05/03 10:00:06;;;;;;;10.63;7.07;;;21.80;99.90;;;;;;5070273;28;20126;-65
2022/05/03 10:02:42;;;;;;;8.95;5.80;;;22.30;99.90;;;;;;5100183;28;20547;-66
2022/05/03 10:05:14;;;;;;;6.88;4.93;;;22.40;99.90;;;;;;5089405;28;20387;-65
2022/05/03 10:07:45;;;;;;;9.15;5.30;;;22.60;99.90;;;;;;5099040;28;20040;-64
2022/05/03 10:10:14;;;;;;;7.05;4.75;;;22.40;99.90;;;;;;5088815;28;20131;-65
2022/05/03 10:12:43;;;;;;;6.43;5.20;;;22.50;99.90;;;;;;5099324;28;20416;-64
2022/05/03 10:15:11;;;;;;;6.82;5.28;;;22.50;99.90;;;;;;5098535;28;20456;-65
2022/05/03 10:20:46;;;;;;;8.02;5.47;;;22.40;99.90;;;;;;5105639;28;20493;-64
2022/05/03 10:23:25;;;;;;;7.75;5.13;;;22.60;99.90;;;;;;5100707;28;20127;-65
2022/05/03 10:26:00;;;;;;;9.27;5.80;;;22.70;99.90;;;;;;5110107;28;20053;-65
2022/05/03 10:29:08;;;;;;;9.05;5.50;;;22.30;99.90;;;;;;5094556;28;20044;-65
2022/05/03 10:32:05;;;;;;;9.38;5.45;;;22.70;99.90;;;;;;5091536;28;20040;-65
2022/05/03 10:34:48;;;;;;;6.55;5.80;;;22.40;99.90;;;;;;5080085;28;20036;-64
2022/05/03 10:37:28;;;;;;;8.63;6.13;;;22.40;99.90;;;;;;5089595;28;20052;-65
2022/05/03 10:40:00;;;;;;;7.97;5.75;;;22.40;99.90;;;;;;5090196;28;20051;-65
2022/05/03 10:42:28;;;;;;;;;;;21.90;99.90;;;;;;5093461;28;20040;-64
2022/05/03 10:45:06;;;;;;;9.13;5.10;;;22.40;99.90;;;;;;5109099;28;20389;-64
2022/05/03 10:47:53;;;;;;;8.73;5.35;;;22.20;99.90;;;;;;5108262;28;20050;-65
2022/05/03 10:50:36;;;;;;;6.57;5.20;;;22.10;99.90;;;;;;5099440;28;20114;-64
2022/05/03 10:53:05;;;;;;;9.07;6.30;;;22.60;99.90;;;;;;5097246;28;20534;-65
2022/05/03 10:55:38;;;;;;;7.00;4.55;;;22.20;99.90;;;;;;5091485;28;20181;-65
2022/05/03 10:58:26;;;;;;;6.63;4.80;;;22.30;99.90;;;;;;5097585;28;20066;-64
2022/05/03 11:01:02;;;;;;;7.07;4.63;;;22.60;99.90;;;;;;5095292;28;20143;-65
2022/05/03 11:03:31;;;;;;;10.55;5.15;;;23.00;99.90;;;;;;5095084;28;20403;-65
2022/05/03 11:06:21;;;;;;;8.13;4.75;;;22.90;99.90;;;;;;5089364;28;20043;-64
2022/05/03 11:11:47;;;;;;;8.07;5.25;;;23.20;99.90;;;;;;5109437;28;20074;-65
2022/05/03 11:14:22;;;;;;;8.75;5.47;;;23.10;99.90;;;;;;5101679;28;20066;-64
2022/05/03 11:17:05;;;;;;;7.32;4.85;;;22.20;99.90;;;;;;5108720;28;20520;-64
2022/05/03 11:19:36;;;;;;;7.32;5.40;;;22.00;99.90;;;;;;5108499;28;20449;-66
2022/05/03 11:22:11;;;;;;;8.07;4.80;;;22.00;99.90;;;;;;5090087;28;20074;-64
2022/05/03 11:24:44;;;;;;;6.05;4.40;;;22.20;99.90;;;;;;5087828;28;20040;-64
2022/05/03 11:27:13;;;;;;;6.30;4.30;;;22.80;99.90;;;;;;5089775;28;20078;-65
2022/05/03 11:29:55;;;;;;;8.45;4.78;;;23.40;99.90;;;;;;5086421;28;20055;-64
2022/05/03 11:32:29;;;;;;;8.93;4.65;;;24.20;99.90;;;;;;5105167;28;20086;-65
2022/05/03 11:35:05;;;;;;;10.55;4.60;;;24.00;99.90;;;;;;5099737;28;20047;-64
2022/05/03 11:37:33;;;;;;;7.35;4.55;;;23.60;99.90;;;;;;5102311;28;20035;-66
2022/05/03 11:40:06;;;;;;;6.30;3.80;;;23.30;99.90;;;;;;5102930;28;20369;-64
2022/05/03 11:42:44;;;;;;;19.42;11.48;;;23.10;99.90;;;;;;5107881;28;20046;-65
2022/05/03 11:45:13;;;;;;;5.43;3.75;;;23.30;99.90;;;;;;5095992;28;20067;-65
2022/05/03 11:47:43;;;;;;;7.80;5.60;;;23.40;99.90;;;;;;5108541;28;20054;-65
2022/05/03 11:55:58;;;;;;;5.60;3.72;;;23.50;99.90;;;;;;5100954;28;20108;-65
2022/05/03 11:56:01;;;;;;;6.97;3.75;;;23.40;99.90;;;;;;5106923;27;20051;-64
2022/05/03 11:58:31;;;;;;;5.00;3.50;;;23.30;99.90;;;;;;5109069;27;20074;-65
2022/05/03 12:00:58;;;;;;;6.50;3.70;;;23.10;99.90;;;;;;5111257;27;20401;-65
2022/05/03 12:03:26;;;;;;;6.75;4.65;;;22.70;99.90;;;;;;5114466;28;20044;-65
2022/05/03 12:06:02;;;;;;;5.80;3.85;;;22.90;99.90;;;;;;5113452;28;20047;-65
2022/05/03 12:08:31;;;;;;;6.93;3.87;;;22.50;99.90;;;;;;5108484;27;20048;-65
2022/05/03 12:10:58;;;;;;;4.95;3.35;;;22.40;99.90;;;;;;5103157;28;20050;-65
2022/05/03 12:13:31;;;;;;;4.45;3.15;;;22.40;99.90;;;;;;5109608;27;20040;-64
2022/05/03 12:16:01;;;;;;;5.38;3.63;;;22.30;99.90;;;;;;5102729;27;20090;-65
2022/05/03 12:18:30;;;;;;;8.18;3.60;;;22.40;99.90;;;;;;5098121;27;20147;-65
2022/05/03 12:20:59;;;;;;;6.07;3.58;;;22.20;99.90;;;;;;5113608;27;20141;-65
2022/05/03 12:23:40;;;;;;;6.22;3.50;;;22.40;99.90;;;;;;5111537;28;20044;-65
2022/05/03 12:26:19;;;;;;;4.72;3.50;;;22.30;99.90;;;;;;5114158;28;20498;-66
2022/05/03 12:28:47;;;;;;;7.80;4.13;;;22.40;99.90;;;;;;5111759;27;20074;-65
2022/05/03 12:31:18;;;;;;;6.80;3.90;;;22.50;99.90;;;;;;5107801;28;20130;-65
2022/05/03 12:33:46;;;;;;;6.75;3.45;;;22.60;99.90;;;;;;5097382;28;20055;-65
2022/05/03 12:36:46;;;;;;;7.00;3.90;;;22.80;99.90;;;;;;5105929;28;20040;-65
2022/05/03 12:39:20;;;;;;;7.32;4.15;;;22.90;99.90;;;;;;5082015;28;20070;-65
2022/05/03 12:42:01;;;;;;;5.18;3.90;;;22.40;99.90;;;;;;5105061;27;20721;-65
2022/05/03 12:44:30;;;;;;;5.53;3.97;;;22.60;99.90;;;;;;5109324;28;20039;-65
2022/05/03 12:47:07;;;;;;;7.60;4.18;;;22.30;99.90;;;;;;5106063;28;20140;-65
2022/05/03 12:49:35;;;;;;;5.90;4.13;;;22.30;99.90;;;;;;5093734;28;20060;-66
2022/05/03 12:52:03;;;;;;;7.28;4.00;;;22.50;99.90;;;;;;5096053;28;20059;-65
2022/05/03 12:54:32;;;;;;;6.32;4.10;;;23.10;99.90;;;;;;5106530;27;20131;-65
2022/05/03 12:59:49;;;;;;;6.70;4.22;;;23.80;99.90;;;;;;5097111;28;20534;-65
2022/05/03 13:02:17;;;;;;;6.30;3.72;;;24.20;99.90;;;;;;5107507;27;20043;-66
2022/05/03 13:04:45;;;;;;;7.47;3.97;;;24.70;99.90;;;;;;5102020;28;20056;-65
2022/05/03 13:07:13;;;;;;;6.07;4.28;;;24.90;99.90;;;;;;5103872;28;20533;-66
2022/05/03 13:09:40;;;;;;;7.70;3.45;;;24.60;99.90;;;;;;5106508;28;20112;-65
2022/05/03 13:12:08;;;;;;;6.22;3.47;;;24.30;99.90;;;;;;5101793;28;20139;-67
2022/05/03 13:14:36;;;;;;;4.68;2.90;;;23.90;99.90;;;;;;5101738;28;20100;-66
2022/05/03 13:17:04;;;;;;;7.18;3.67;;;23.30;99.90;;;;;;5103777;27;20583;-65
2022/05/03 13:19:32;;;;;;;10.00;4.13;;;22.90;99.90;;;;;;5104263;28;20046;-65
2022/05/03 13:22:00;;;;;;;9.10;4.68;;;22.00;99.90;;;;;;5098217;28;20075;-65
2022/05/03 13:24:28;;;;;;;10.52;4.28;;;21.40;99.90;;;;;;5097044;28;20044;-67
2022/05/03 13:26:55;;;;;;;12.00;5.13;;;20.70;99.90;;;;;;5097667;28;20112;-66
2022/05/03 13:29:23;;;;;;;11.63;5.40;;;20.30;99.90;;;;;;5110414;28;20387;-65
2022/05/03 13:31:51;;;;;;;7.57;4.78;;;19.80;99.90;;;;;;5098415;28;20036;-65
2022/05/03 13:34:18;;;;;;;9.25;5.13;;;19.40;99.90;;;;;;5102207;28;20540;-66
2022/05/03 13:42:18;;;;;;;7.20;5.13;;;19.10;99.90;;;;;;5096150;28;20061;-65